Terminal Aerodrome Forecast
Issued by NWS

Home | Current Version | Previous Version | Text Only | Print | Product List | Glossary On
Versions: 1 2 3 4 5 6 7 8 9 10 11 12 13 14 15 16 17 18 19
000
FTUS46 KSEW 202333
TAFBFI
TAF
KBFI 202333Z 2100/2124 VRB03KT P6SM VCSH SCT050 OVC070
     FM210200 04007KT P6SM BKN050 BKN200
     FM210500 00000KT P6SM FEW060 SCT250
     FM211900 19003KT P6SM OVC060=

USA.gov is the U.S. government's official web portal to all federal, state and local government web resources and services.